Time;durP1;ratioP1;P1;durP2;ratioP2;P2;SDS_P1;SDS_P2;PMS_P1;PMS_P2;Temp;Humidity;BMP_temperature;BMP_pressure;BME280_temperature;BME280_humidity;BME280_pressure;Samples;Min_cycle;Max_cycle;Signal;HPM_P1;HPM_P2
2022/10/18 00:02:22;;;;;;;47.90;29.55;;;;;;;;;;5009707;28;20046;-82
2022/10/18 00:04:48;;;;;;;45.25;29.55;;;;;;;;;;5009571;28;20355;-87
2022/10/18 00:07:14;;;;;;;48.97;28.77;;;;;;;;;;5024690;28;20049;-88
2022/10/18 00:09:40;;;;;;;41.92;27.70;;;;;;;;;;5009890;28;20096;-86
2022/10/18 00:12:07;;;;;;;62.58;32.65;;;;;;;;;;4991863;28;20046;-86
2022/10/18 00:14:33;;;;;;;49.25;29.08;;;;;;;;;;5009407;28;20353;-86
2022/10/18 00:16:59;;;;;;;45.20;27.95;;;;;;;;;;5010242;28;20045;-88
2022/10/18 00:19:25;;;;;;;57.45;32.58;;;;;;;;;;5012314;28;20406;-82
2022/10/18 00:21:51;;;;;;;54.65;30.77;;;;;;;;;;5017627;28;20060;-87
2022/10/18 00:24:17;;;;;;;41.17;27.80;;;;;;;;;;5019562;28;20435;-87
2022/10/18 00:26:43;;;;;;;49.33;28.20;;;;;;;;;;5019737;28;20085;-87
2022/10/18 00:29:13;;;;;;;74.25;38.78;;;;;;;;;;5023380;28;20042;-85
2022/10/18 00:31:39;;;;;;;50.53;30.50;;;;;;;;;;5024298;28;20389;-87
2022/10/18 00:34:09;;;;;;;76.05;37.95;;;;;;;;;;5022183;28;20049;-86
2022/10/18 00:36:35;;;;;;;81.72;39.90;;;;;;;;;;5018500;28;20191;-87
2022/10/18 00:39:02;;;;;;;68.20;36.47;;;;;;;;;;5029314;28;20104;-86
2022/10/18 00:41:29;;;;;;;104.60;42.13;;;;;;;;;;5014165;28;20444;-81
2022/10/18 00:43:58;;;;;;;129.65;43.03;;;;;;;;;;5013939;28;20065;-87
2022/10/18 00:46:26;;;;;;;95.70;40.60;;;;;;;;;;5013137;28;20053;-86
2022/10/18 00:48:52;;;;;;;95.47;43.33;;;;;;;;;;5012773;28;20543;-86
2022/10/18 00:51:18;;;;;;;;;;;;;;;;;;5013404;28;20061;-87
2022/10/18 00:53:44;;;;;;;69.90;37.95;;;;;;;;;;5013047;28;19921;-87
2022/10/18 00:56:11;;;;;;;70.72;39.47;;;;;;;;;;5013086;28;20056;-87
2022/10/18 00:58:37;;;;;;;112.63;42.47;;;;;;;;;;5027685;28;20136;-86
2022/10/18 01:01:03;;;;;;;;;;;;;;;;;;5028224;28;20046;-86
2022/10/18 01:03:29;;;;;;;80.78;39.95;;;;;;;;;;5012923;28;20344;-88
2022/10/18 01:05:55;;;;;;;94.07;40.92;;;;;;;;;;5028215;28;20090;-88
2022/10/18 01:08:33;;;;;;;111.57;43.28;;;;;;;;;;5012822;28;20068;-84
2022/10/18 01:11:07;;;;;;;73.90;37.22;;;;;;;;;;5015686;28;20121;-86
2022/10/18 01:13:51;;;;;;;57.75;35.75;;;;;;;;;;5015271;28;20041;-82
2022/10/18 01:16:23;;;;;;;58.17;35.03;;;;;;;;;;5015964;28;20085;-86
2022/10/18 01:18:54;;;;;;;91.43;38.72;;;;;;;;;;5012887;28;20122;-87
2022/10/18 01:21:39;;;;;;;67.28;36.60;;;;;;;;;;5012930;28;20061;-87
2022/10/18 01:24:08;;;;;;;67.18;36.20;;;;;;;;;;5027503;28;20084;-88
2022/10/18 01:26:53;;;;;;;67.85;35.72;;;;;;;;;;5012184;28;20466;-82
2022/10/18 01:29:26;;;;;;;68.35;36.42;;;;;;;;;;5014926;28;20046;-87
2022/10/18 01:32:00;;;;;;;55.88;34.03;;;;;;;;;;5013663;28;20098;-87
2022/10/18 01:34:27;;;;;;;80.60;37.65;;;;;;;;;;5013870;28;20060;-88
2022/10/18 01:36:55;;;;;;;61.20;32.83;;;;;;;;;;4994508;28;20042;-87
2022/10/18 01:39:23;;;;;;;151.63;51.30;;;;;;;;;;5011835;28;20129;-88
2022/10/18 01:41:51;;;;;;;86.47;38.30;;;;;;;;;;5012424;28;20132;-84
2022/10/18 01:44:21;;;;;;;72.35;35.83;;;;;;;;;;5012292;28;20105;-88
2022/10/18 01:46:48;;;;;;;103.95;40.25;;;;;;;;;;5013366;28;20104;-82
2022/10/18 01:49:14;;;;;;;125.90;38.80;;;;;;;;;;5012563;28;20053;-86
2022/10/18 01:51:40;;;;;;;94.40;40.03;;;;;;;;;;5012032;28;20104;-85
2022/10/18 01:54:06;;;;;;;181.30;46.33;;;;;;;;;;5012195;28;20105;-87
2022/10/18 01:56:41;;;;;;;200.77;47.25;;;;;;;;;;4994497;28;20098;-87
2022/10/18 01:59:07;;;;;;;119.60;41.75;;;;;;;;;;5012193;28;20105;-86
2022/10/18 02:01:42;;;;;;;169.77;44.47;;;;;;;;;;5011889;28;20058;-86
2022/10/18 02:04:27;;;;;;;101.20;41.50;;;;;;;;;;5012048;28;20076;-87
2022/10/18 02:06:57;;;;;;;164.80;40.85;;;;;;;;;;5027370;28;20195;-86
2022/10/18 02:09:29;;;;;;;158.57;43.08;;;;;;;;;;5011981;28;20137;-86
2022/10/18 02:11:56;;;;;;;325.52;54.08;;;;;;;;;;5012028;28;20046;-87
2022/10/18 02:14:24;;;;;;;313.08;48.38;;;;;;;;;;5012051;28;20057;-87
2022/10/18 02:16:51;;;;;;;205.90;41.70;;;;;;;;;;5011895;28;20371;-87
2022/10/18 02:19:17;;;;;;;192.80;42.10;;;;;;;;;;5011556;28;20081;-87
2022/10/18 02:21:45;;;;;;;313.38;48.75;;;;;;;;;;5011610;28;20060;-84
2022/10/18 02:24:12;;;;;;;210.13;42.65;;;;;;;;;;5027002;28;20105;-87
2022/10/18 02:26:38;;;;;;;189.48;42.22;;;;;;;;;;5011383;28;20050;-86
2022/10/18 02:29:05;;;;;;;176.95;39.58;;;;;;;;;;5011267;28;20423;-84
2022/10/18 02:31:33;;;;;;;197.50;39.60;;;;;;;;;;5011687;28;20042;-84
2022/10/18 02:33:59;;;;;;;84.45;34.28;;;;;;;;;;4993702;28;20502;-84
2022/10/18 02:36:27;;;;;;;139.60;35.22;;;;;;;;;;5026635;28;20145;-83
2022/10/18 02:38:56;;;;;;;154.98;34.15;;;;;;;;;;5011287;28;20042;-84
2022/10/18 02:41:25;;;;;;;197.82;36.90;;;;;;;;;;5011476;28;20451;-85
2022/10/18 02:43:52;;;;;;;400.85;54.83;;;;;;;;;;4993588;28;20050;-84
2022/10/18 02:46:18;;;;;;;203.40;39.28;;;;;;;;;;5011438;28;20046;-84
2022/10/18 02:48:44;;;;;;;215.07;43.95;;;;;;;;;;5011368;28;20049;-85
2022/10/18 02:51:10;;;;;;;348.67;51.25;;;;;;;;;;5010323;28;20127;-85
2022/10/18 02:53:36;;;;;;;171.15;38.92;;;;;;;;;;5011741;28;20046;-83
2022/10/18 02:56:02;;;;;;;267.23;51.90;;;;;;;;;;5011187;28;20061;-83
2022/10/18 02:58:29;;;;;;;112.28;37.80;;;;;;;;;;5026406;28;20192;-83
2022/10/18 03:00:55;;;;;;;206.13;44.05;;;;;;;;;;5011511;28;20075;-83
2022/10/18 03:03:21;;;;;;;108.07;37.70;;;;;;;;;;5025987;28;20046;-83
2022/10/18 03:05:51;;;;;;;145.52;40.70;;;;;;;;;;5011136;28;20046;-83
2022/10/18 03:08:17;;;;;;;195.45;43.85;;;;;;;;;;5010928;28;20049;-84
2022/10/18 03:10:43;;;;;;;300.35;48.97;;;;;;;;;;5010767;28;20042;-84
2022/10/18 03:13:10;;;;;;;265.63;49.90;;;;;;;;;;5026090;28;20046;-84
2022/10/18 03:15:36;;;;;;;207.60;44.30;;;;;;;;;;5026139;28;20042;-85
2022/10/18 03:18:02;;;;;;;223.02;44.78;;;;;;;;;;5010428;28;20403;-85
2022/10/18 03:20:28;;;;;;;228.50;42.28;;;;;;;;;;5010994;28;20050;-84
2022/10/18 03:22:54;;;;;;;128.13;37.10;;;;;;;;;;5025728;28;20049;-83
2022/10/18 03:25:20;;;;;;;120.32;37.28;;;;;;;;;;5026002;28;20050;-83
2022/10/18 03:27:46;;;;;;;208.80;42.70;;;;;;;;;;5010740;28;20057;-84
2022/10/18 03:30:12;;;;;;;200.00;44.65;;;;;;;;;;5025885;28;20133;-83
2022/10/18 03:32:39;;;;;;;254.18;47.33;;;;;;;;;;5010850;28;20092;-82
2022/10/18 03:35:06;;;;;;;112.38;36.95;;;;;;;;;;5010264;28;20069;-84
2022/10/18 03:37:32;;;;;;;155.50;41.33;;;;;;;;;;5010374;28;20054;-82
2022/10/18 03:39:58;;;;;;;166.65;41.85;;;;;;;;;;5010307;28;20049;-82
2022/10/18 03:42:24;;;;;;;221.07;43.88;;;;;;;;;;5025087;28;20129;-82
2022/10/18 03:44:50;;;;;;;145.15;40.55;;;;;;;;;;5010635;28;20165;-81
2022/10/18 03:47:16;;;;;;;101.38;37.55;;;;;;;;;;5025358;28;20512;-79
2022/10/18 03:49:42;;;;;;;198.88;44.97;;;;;;;;;;5010151;28;20505;-81
2022/10/18 03:52:08;;;;;;;253.57;48.85;;;;;;;;;;5025471;28;20053;-81
2022/10/18 03:54:34;;;;;;;99.80;37.75;;;;;;;;;;5010575;28;20128;-81
2022/10/18 03:57:00;;;;;;;191.55;44.15;;;;;;;;;;5025672;28;20046;-81
2022/10/18 03:59:26;;;;;;;77.00;34.67;;;;;;;;;;5010252;28;20084;-79
2022/10/18 04:01:52;;;;;;;102.68;37.63;;;;;;;;;;5025180;28;20108;-80
2022/10/18 04:04:19;;;;;;;86.05;36.22;;;;;;;;;;5010592;28;20119;-80
2022/10/18 04:06:45;;;;;;;238.75;49.83;;;;;;;;;;5010463;28;20046;-80
2022/10/18 04:09:11;;;;;;;136.65;38.33;;;;;;;;;;5010195;28;20133;-81
2022/10/18 04:11:37;;;;;;;118.35;37.63;;;;;;;;;;5009338;28;20057;-80
2022/10/18 04:14:03;;;;;;;184.07;43.58;;;;;;;;;;5009994;28;20061;-81
2022/10/18 04:16:29;;;;;;;216.15;40.83;;;;;;;;;;5010275;28;20542;-80
2022/10/18 04:18:55;;;;;;;216.43;42.65;;;;;;;;;;5010147;28;20343;-79
2022/10/18 04:21:21;;;;;;;285.48;54.38;;;;;;;;;;5009656;28;20120;-80
2022/10/18 04:23:47;;;;;;;203.48;43.17;;;;;;;;;;5025017;28;20054;-81
2022/10/18 04:26:15;;;;;;;;;;;;;;;;;;5010146;28;20109;-81
2022/10/18 04:28:41;;;;;;;181.75;38.83;;;;;;;;;;5009622;28;19921;-81
2022/10/18 04:31:08;;;;;;;200.55;39.42;;;;;;;;;;5009970;28;20042;-82
2022/10/18 04:33:34;;;;;;;;;;;;;;;;;;5009920;28;20046;-81
2022/10/18 04:36:00;;;;;;;254.38;45.45;;;;;;;;;;5009743;28;20210;-78
2022/10/18 04:38:26;;;;;;;133.88;37.72;;;;;;;;;;5009879;28;20102;-79
2022/10/18 04:40:52;;;;;;;152.35;40.85;;;;;;;;;;5009741;28;20115;-78
2022/10/18 04:43:18;;;;;;;139.30;38.25;;;;;;;;;;5009661;28;20100;-80
2022/10/18 04:45:45;;;;;;;205.70;40.83;;;;;;;;;;5009998;28;20050;-78
2022/10/18 04:48:11;;;;;;;226.65;42.80;;;;;;;;;;5010087;28;20042;-78
2022/10/18 04:50:37;;;;;;;161.15;37.70;;;;;;;;;;5009969;28;20042;-78
2022/10/18 04:53:03;;;;;;;217.10;40.65;;;;;;;;;;5009221;28;20053;-77
2022/10/18 04:55:29;;;;;;;;;;;;;;;;;;5024830;28;20127;-78
2022/10/18 04:57:55;;;;;;;164.77;39.53;;;;;;;;;;5009482;28;20015;-78
2022/10/18 05:00:21;;;;;;;113.72;36.28;;;;;;;;;;5008926;28;20069;-78
2022/10/18 05:02:47;;;;;;;193.88;37.72;;;;;;;;;;5009278;28;20108;-80
2022/10/18 05:05:13;;;;;;;170.23;40.40;;;;;;;;;;4991539;28;20084;-79
2022/10/18 05:07:39;;;;;;;210.48;37.28;;;;;;;;;;5009767;28;20074;-79
2022/10/18 05:10:09;;;;;;;183.85;34.38;;;;;;;;;;5010434;28;20434;-79
2022/10/18 05:12:35;;;;;;;148.43;33.40;;;;;;;;;;5009627;28;20046;-78
2022/10/18 05:15:01;;;;;;;162.18;32.53;;;;;;;;;;5011720;28;20446;-78
2022/10/18 05:17:27;;;;;;;165.50;32.65;;;;;;;;;;5012932;28;20127;-79
2022/10/18 05:19:53;;;;;;;150.30;33.85;;;;;;;;;;5012647;28;20065;-78
2022/10/18 05:22:19;;;;;;;196.60;36.55;;;;;;;;;;5012685;28;20096;-76
2022/10/18 05:24:45;;;;;;;185.80;36.70;;;;;;;;;;5012805;28;20061;-73
2022/10/18 05:27:11;;;;;;;112.50;30.33;;;;;;;;;;4995177;28;20046;-75
2022/10/18 05:29:37;;;;;;;160.60;32.40;;;;;;;;;;5012841;28;20382;-74
2022/10/18 05:32:04;;;;;;;94.80;28.35;;;;;;;;;;5012314;28;20464;-73
2022/10/18 05:34:30;;;;;;;153.60;32.28;;;;;;;;;;5012674;28;20049;-74
2022/10/18 05:36:57;;;;;;;133.80;31.00;;;;;;;;;;5012629;28;20164;-74
2022/10/18 05:39:23;;;;;;;;;;;;;;;;;;5012900;28;20128;-75
2022/10/18 05:41:49;;;;;;;168.15;31.65;;;;;;;;;;5012707;28;20381;-75
2022/10/18 05:44:15;;;;;;;167.75;29.30;;;;;;;;;;5012247;28;20050;-75
2022/10/18 05:46:41;;;;;;;160.13;29.08;;;;;;;;;;5012431;28;20339;-74
2022/10/18 05:49:07;;;;;;;185.30;29.73;;;;;;;;;;4994872;28;20050;-74
2022/10/18 05:51:33;;;;;;;178.73;28.58;;;;;;;;;;5012374;28;20450;-72
2022/10/18 05:53:59;;;;;;;204.27;34.53;;;;;;;;;;5012299;28;20449;-74
2022/10/18 05:56:25;;;;;;;205.18;30.35;;;;;;;;;;5012173;28;20476;-75
2022/10/18 05:58:51;;;;;;;158.60;28.52;;;;;;;;;;5012274;28;20073;-74
2022/10/18 06:01:18;;;;;;;168.00;29.48;;;;;;;;;;5027478;28;20133;-73
2022/10/18 06:03:44;;;;;;;131.65;28.35;;;;;;;;;;5012305;28;20105;-73
2022/10/18 06:06:11;;;;;;;59.03;22.08;;;;;;;;;;5011468;28;20049;-72
2022/10/18 06:08:38;;;;;;;57.90;23.05;;;;;;;;;;5011572;28;20046;-72
2022/10/18 06:11:08;;;;;;;92.00;23.10;;;;;;;;;;5011160;28;20132;-73
2022/10/18 06:13:34;;;;;;;81.25;22.33;;;;;;;;;;5011266;28;20046;-70
2022/10/18 06:16:00;;;;;;;84.88;22.55;;;;;;;;;;5011333;28;20053;-72
2022/10/18 06:18:29;;;;;;;91.90;23.98;;;;;;;;;;5011223;28;20101;-72
2022/10/18 06:20:58;;;;;;;105.78;24.10;;;;;;;;;;5010693;28;20396;-72
2022/10/18 06:23:25;;;;;;;97.80;22.05;;;;;;;;;;5010525;28;20493;-73
2022/10/18 06:25:51;;;;;;;59.53;20.13;;;;;;;;;;5025089;28;20050;-72
2022/10/18 06:28:17;;;;;;;88.90;21.58;;;;;;;;;;5009816;28;20050;-82
2022/10/18 06:30:44;;;;;;;63.00;22.55;;;;;;;;;;5025181;28;20194;-72
2022/10/18 06:33:12;;;;;;;;;;;;;;;;;;5010523;28;20085;-72
2022/10/18 06:35:38;;;;;;;64.75;21.00;;;;;;;;;;5009873;28;19973;-73
2022/10/18 06:38:05;;;;;;;77.45;22.27;;;;;;;;;;5009435;28;20041;-71
2022/10/18 06:40:36;;;;;;;38.55;19.05;;;;;;;;;;5009442;28;20050;-72
2022/10/18 06:43:05;;;;;;;59.40;21.20;;;;;;;;;;5010061;28;20223;-72
2022/10/18 06:45:32;;;;;;;84.45;21.25;;;;;;;;;;5009786;28;20153;-72
2022/10/18 06:47:58;;;;;;;73.13;19.05;;;;;;;;;;5009602;28;20053;-74
2022/10/18 06:50:24;;;;;;;80.53;20.33;;;;;;;;;;5009553;28;20084;-73
2022/10/18 06:52:53;;;;;;;107.65;20.42;;;;;;;;;;5009987;28;20116;-72
2022/10/18 06:55:19;;;;;;;95.47;19.30;;;;;;;;;;5010369;28;20299;-73
2022/10/18 06:57:45;;;;;;;145.13;23.50;;;;;;;;;;5009351;28;20049;-73
2022/10/18 07:00:11;;;;;;;99.55;19.55;;;;;;;;;;5010206;28;20050;-73
2022/10/18 07:02:40;;;;;;;142.80;19.20;;;;;;;;;;5009277;28;20042;-74
2022/10/18 07:05:09;;;;;;;207.38;23.23;;;;;;;;;;5009501;28;20073;-73
2022/10/18 07:07:35;;;;;;;147.02;20.65;;;;;;;;;;5009389;28;20367;-73
2022/10/18 07:10:01;;;;;;;162.43;22.38;;;;;;;;;;5009667;28;20125;-71
2022/10/18 07:12:27;;;;;;;118.85;20.65;;;;;;;;;;5009770;28;20315;-72
2022/10/18 07:14:53;;;;;;;179.38;22.25;;;;;;;;;;5009307;28;20046;-72
2022/10/18 07:17:20;;;;;;;101.18;17.73;;;;;;;;;;5009319;28;20049;-72
2022/10/18 07:19:46;;;;;;;69.57;17.02;;;;;;;;;;5008803;28;20472;-73
2022/10/18 07:22:12;;;;;;;63.30;16.83;;;;;;;;;;5008930;28;20046;-73
2022/10/18 07:24:38;;;;;;;40.63;16.33;;;;;;;;;;5023991;28;20094;-72
2022/10/18 07:27:04;;;;;;;84.43;18.77;;;;;;;;;;5008963;28;20462;-77
2022/10/18 07:29:31;;;;;;;37.90;15.50;;;;;;;;;;5008736;28;20117;-73
2022/10/18 07:31:57;;;;;;;;;;;;;;;;;;5009222;28;20109;-71
2022/10/18 07:34:23;;;;;;;39.90;15.50;;;;;;;;;;4991332;28;19983;-71
2022/10/18 07:36:49;;;;;;;49.47;18.30;;;;;;;;;;5023029;28;20041;-75
2022/10/18 07:39:15;;;;;;;39.65;17.88;;;;;;;;;;5008777;28;20133;-72
2022/10/18 07:41:41;;;;;;;46.33;17.20;;;;;;;;;;5008293;28;20057;-73
2022/10/18 07:44:07;;;;;;;42.58;17.10;;;;;;;;;;5008500;28;20061;-72
2022/10/18 07:46:33;;;;;;;35.80;17.27;;;;;;;;;;5008500;28;20069;-71
2022/10/18 07:49:00;;;;;;;30.23;16.10;;;;;;;;;;5008570;28;20160;-71
2022/10/18 07:51:26;;;;;;;27.48;16.40;;;;;;;;;;5008521;28;20046;-73
2022/10/18 07:53:52;;;;;;;33.00;16.30;;;;;;;;;;5008726;28;20062;-72
2022/10/18 07:56:19;;;;;;;26.88;15.05;;;;;;;;;;5008458;28;20199;-71
2022/10/18 07:58:47;;;;;;;28.52;16.75;;;;;;;;;;5008702;28;20049;-73
2022/10/18 08:01:14;;;;;;;29.13;15.70;;;;;;;;;;4990948;28;20050;-72
2022/10/18 08:03:40;;;;;;;26.90;16.75;;;;;;;;;;4990782;28;20121;-72
2022/10/18 08:06:10;;;;;;;27.05;16.55;;;;;;;;;;5008903;28;20080;-71
2022/10/18 08:08:37;;;;;;;22.40;14.85;;;;;;;;;;5008566;28;20046;-72
2022/10/18 08:11:04;;;;;;;26.30;15.38;;;;;;;;;;5008506;28;20129;-74
2022/10/18 08:13:31;;;;;;;27.88;15.73;;;;;;;;;;5008706;28;20462;-72
2022/10/18 08:15:57;;;;;;;;;;;;;;;;;;5023746;28;20050;-72
2022/10/18 08:18:23;;;;;;;25.50;15.40;;;;;;;;;;5008718;28;19958;-72
2022/10/18 08:20:49;;;;;;;25.52;16.95;;;;;;;;;;5023347;28;20545;-72
2022/10/18 08:23:15;;;;;;;28.20;16.35;;;;;;;;;;5008714;28;20089;-74
2022/10/18 08:25:41;;;;;;;30.83;18.02;;;;;;;;;;5023891;28;20053;-72
2022/10/18 08:28:07;;;;;;;29.73;16.77;;;;;;;;;;5008508;28;20090;-73
2022/10/18 08:30:34;;;;;;;30.60;16.75;;;;;;;;;;4990859;28;20136;-74
2022/10/18 08:33:00;;;;;;;31.23;16.83;;;;;;;;;;5008608;28;20073;-74
2022/10/18 08:35:26;;;;;;;34.13;16.50;;;;;;;;;;5008470;28;20095;-73
2022/10/18 08:37:52;;;;;;;27.90;16.30;;;;;;;;;;5008622;28;20093;-74
2022/10/18 08:40:19;;;;;;;29.55;14.30;;;;;;;;;;5008190;28;20046;-73
2022/10/18 08:42:45;;;;;;;28.90;14.45;;;;;;;;;;5008174;28;20065;-74
2022/10/18 08:45:12;;;;;;;25.20;13.50;;;;;;;;;;5008417;28;20145;-74
2022/10/18 08:47:42;;;;;;;30.73;13.88;;;;;;;;;;5008220;28;20144;-77
2022/10/18 08:50:16;;;;;;;28.17;12.52;;;;;;;;;;5010960;28;20050;-75
2022/10/18 08:52:43;;;;;;;23.83;12.55;;;;;;;;;;5012161;28;20160;-75
2022/10/18 08:55:22;;;;;;;32.38;13.77;;;;;;;;;;5012067;28;20054;-75
2022/10/18 08:57:49;;;;;;;29.10;11.98;;;;;;;;;;4994975;28;20050;-73
2022/10/18 09:00:23;;;;;;;26.27;12.85;;;;;;;;;;5026697;28;20042;-76
2022/10/18 09:03:03;;;;;;;27.20;13.13;;;;;;;;;;5027166;28;20148;-72
2022/10/18 09:05:33;;;;;;;27.33;9.13;;;;;;;;;;4995742;28;20069;-80
2022/10/18 09:08:20;;;;;;;29.48;9.73;;;;;;;;;;5012525;28;20050;-75
2022/10/18 09:10:55;;;;;;;25.60;8.07;;;;;;;;;;4997590;28;20057;-72
2022/10/18 09:13:30;;;;;;;30.55;10.52;;;;;;;;;;5015620;28;20109;-72
2022/10/18 09:15:58;;;;;;;37.78;12.35;;;;;;;;;;5016222;28;20049;-70
2022/10/18 09:18:27;;;;;;;24.70;12.63;;;;;;;;;;5017019;28;20049;-69
2022/10/18 09:20:53;;;;;;;30.85;11.75;;;;;;;;;;5016545;28;20053;-77
2022/10/18 09:23:21;;;;;;;29.23;9.75;;;;;;;;;;5016781;28;20124;-74
2022/10/18 09:26:08;;;;;;;23.95;7.65;;;;;;;;;;5016548;28;20397;-73
2022/10/18 09:28:53;;;;;;;23.85;7.40;;;;;;;;;;5017119;28;20050;-79
2022/10/18 09:31:25;;;;;;;23.25;6.13;;;;;;;;;;5017852;28;20438;-75
2022/10/18 09:34:03;;;;;;;26.30;6.53;;;;;;;;;;5016597;28;20049;-77
2022/10/18 09:36:34;;;;;;;29.58;7.25;;;;;;;;;;5016778;28;20486;-76
2022/10/18 09:39:20;;;;;;;22.20;5.72;;;;;;;;;;5016360;28;20537;-75
2022/10/18 09:41:48;;;;;;;26.25;6.40;;;;;;;;;;5006260;28;20050;-75
2022/10/18 09:44:23;;;;;;;23.30;6.18;;;;;;;;;;5016904;28;20165;-77
2022/10/18 09:46:51;;;;;;;24.83;7.97;;;;;;;;;;5016083;28;20413;-76
2022/10/18 09:49:29;;;;;;;24.77;7.32;;;;;;;;;;5017377;28;20406;-70
2022/10/18 09:51:56;;;;;;;24.45;7.57;;;;;;;;;;5016224;28;20042;-73
2022/10/18 09:54:34;;;;;;;28.00;6.45;;;;;;;;;;5016406;28;20053;-74
2022/10/18 09:57:06;;;;;;;21.02;6.78;;;;;;;;;;5015412;28;20046;-72
2022/10/18 09:59:35;;;;;;;25.20;7.30;;;;;;;;;;5015078;28;20053;-70
2022/10/18 10:02:01;;;;;;;24.58;7.38;;;;;;;;;;5015473;28;20041;-70
2022/10/18 10:04:28;;;;;;;26.13;6.75;;;;;;;;;;5015763;28;20386;-71
2022/10/18 10:06:55;;;;;;;33.70;6.97;;;;;;;;;;5017375;28;20103;-72
2022/10/18 10:09:28;;;;;;;23.60;6.03;;;;;;;;;;5024105;28;20045;-71
2022/10/18 10:11:54;;;;;;;23.13;5.30;;;;;;;;;;5010728;28;20453;-71
2022/10/18 10:14:22;;;;;;;18.98;4.30;;;;;;;;;;5000086;28;20049;-73
2022/10/18 10:16:48;;;;;;;18.35;3.20;;;;;;;;;;5016177;28;20050;-80
2022/10/18 10:19:19;;;;;;;22.58;4.00;;;;;;;;;;5015129;28;20095;-74
2022/10/18 10:21:46;;;;;;;21.65;4.10;;;;;;;;;;5015371;28;20485;-71
2022/10/18 10:24:21;;;;;;;19.27;3.83;;;;;;;;;;5015418;28;20050;-70
2022/10/18 10:26:47;;;;;;;19.08;3.72;;;;;;;;;;5014665;28;20041;-74
2022/10/18 10:29:32;;;;;;;18.08;3.80;;;;;;;;;;5014635;28;20046;-71
2022/10/18 10:32:02;;;;;;;19.73;3.85;;;;;;;;;;5014346;28;20390;-71
2022/10/18 10:34:29;;;;;;;20.23;4.32;;;;;;;;;;5014519;28;20050;-71
2022/10/18 10:36:56;;;;;;;19.50;3.78;;;;;;;;;;5014521;28;20367;-71
2022/10/18 10:39:22;;;;;;;;;;;;;;;;;;5014853;28;20046;-72
2022/10/18 10:41:49;;;;;;;17.77;3.97;;;;;;;;;;5014817;28;19944;-73
2022/10/18 10:44:16;;;;;;;14.77;3.28;;;;;;;;;;5014420;28;20450;-72
2022/10/18 10:46:42;;;;;;;20.10;3.78;;;;;;;;;;5014034;28;20520;-73
2022/10/18 10:49:16;;;;;;;19.02;3.92;;;;;;;;;;5014177;28;20056;-73
2022/10/18 10:51:42;;;;;;;20.23;4.03;;;;;;;;;;5013727;28;20046;-68
2022/10/18 10:54:16;;;;;;;19.08;3.38;;;;;;;;;;4996337;28;20046;-70
2022/10/18 10:56:59;;;;;;;17.42;3.45;;;;;;;;;;5013735;28;20084;-71
2022/10/18 10:59:27;;;;;;;16.20;3.47;;;;;;;;;;5012911;28;20397;-76
2022/10/18 11:02:12;;;;;;;18.30;3.63;;;;;;;;;;5012155;28;20046;-64
2022/10/18 11:04:39;;;;;;;17.30;3.10;;;;;;;;;;5012504;28;20061;-68
2022/10/18 11:07:12;;;;;;;15.63;3.60;;;;;;;;;;5013805;28;20089;-66
2022/10/18 11:09:50;;;;;;;16.98;3.45;;;;;;;;;;5014311;28;20046;-74
2022/10/18 11:12:34;;;;;;;16.65;3.25;;;;;;;;;;5013407;28;20081;-68
2022/10/18 11:15:08;;;;;;;19.33;3.50;;;;;;;;;;5013975;28;20058;-71
2022/10/18 11:17:56;;;;;;;16.60;3.90;;;;;;;;;;5029752;28;20085;-76
2022/10/18 11:20:26;;;;;;;17.10;3.70;;;;;;;;;;5012304;28;20058;-73
2022/10/18 11:22:55;;;;;;;18.65;3.20;;;;;;;;;;5028883;28;20053;-69
2022/10/18 11:25:28;;;;;;;17.52;3.75;;;;;;;;;;5028282;28;20085;-72
2022/10/18 11:27:57;;;;;;;18.15;3.15;;;;;;;;;;5013656;28;20045;-72
2022/10/18 11:30:26;;;;;;;14.55;3.15;;;;;;;;;;5014477;28;20045;-71
2022/10/18 11:33:00;;;;;;;16.95;4.20;;;;;;;;;;5013762;28;20050;-73
2022/10/18 11:35:37;;;;;;;16.80;3.50;;;;;;;;;;5012794;28;20046;-72
2022/10/18 11:38:15;;;;;;;16.17;3.83;;;;;;;;;;5013515;28;20053;-73
2022/10/18 11:40:59;;;;;;;24.02;4.10;;;;;;;;;;5012791;28;20056;-72
2022/10/18 11:43:25;;;;;;;19.42;3.33;;;;;;;;;;5013006;28;20060;-72
2022/10/18 11:45:56;;;;;;;20.45;4.03;;;;;;;;;;4996000;28;20050;-73
2022/10/18 11:48:48;;;;;;;20.95;4.32;;;;;;;;;;5012852;28;20486;-71
2022/10/18 11:51:20;;;;;;;15.75;3.20;;;;;;;;;;5013137;28;20064;-67
2022/10/18 11:54:06;;;;;;;16.52;3.72;;;;;;;;;;5028127;28;20089;-73
2022/10/18 11:56:38;;;;;;;18.13;3.90;;;;;;;;;;4976794;28;20542;-68
2022/10/18 11:59:09;;;;;;;15.75;3.50;;;;;;;;;;5012923;28;20050;-68
2022/10/18 12:01:51;;;;;;;18.80;3.20;;;;;;;;;;5013273;28;20061;-70
2022/10/18 12:04:19;;;;;;;17.58;3.13;;;;;;;;;;5017889;28;20041;-69
2022/10/18 12:06:46;;;;;;;23.55;4.65;;;;;;;;;;5005006;28;20073;-67
2022/10/18 12:09:19;;;;;;;17.80;3.17;;;;;;;;;;5013730;28;20050;-68
2022/10/18 12:11:53;;;;;;;15.60;3.15;;;;;;;;;;5013056;28;20144;-70
2022/10/18 12:14:24;;;;;;;13.85;3.05;;;;;;;;;;5012501;28;20081;-68
2022/10/18 12:16:50;;;;;;;25.65;3.83;;;;;;;;;;5013111;28;20132;-70
2022/10/18 12:19:19;;;;;;;14.65;3.33;;;;;;;;;;5012490;28;20482;-68
2022/10/18 12:21:46;;;;;;;17.05;3.00;;;;;;;;;;5012230;28;20107;-68
2022/10/18 12:24:27;;;;;;;18.30;3.65;;;;;;;;;;5016535;28;20095;-65
2022/10/18 12:26:56;;;;;;;21.90;3.17;;;;;;;;;;5018807;28;20485;-69
2022/10/18 12:29:22;;;;;;;20.58;2.80;;;;;;;;;;5018498;28;20045;-66
2022/10/18 12:31:53;;;;;;;21.30;3.08;;;;;;;;;;5001440;28;20222;-70
2022/10/18 12:34:22;;;;;;;17.27;3.30;;;;;;;;;;5019033;28;20100;-74
2022/10/18 12:37:01;;;;;;;17.58;3.60;;;;;;;;;;5034239;28;20054;-69
2022/10/18 12:39:30;;;;;;;14.35;3.15;;;;;;;;;;5019365;28;20057;-66
2022/10/18 12:41:56;;;;;;;18.05;3.75;;;;;;;;;;5018683;28;20459;-68
2022/10/18 12:44:33;;;;;;;27.25;3.38;;;;;;;;;;5034548;28;20056;-66
2022/10/18 12:47:01;;;;;;;16.52;3.13;;;;;;;;;;5001343;28;20053;-69
2022/10/18 12:49:31;;;;;;;22.67;3.63;;;;;;;;;;5019549;28;20050;-70
2022/10/18 12:52:01;;;;;;;17.27;3.20;;;;;;;;;;5019539;28;20084;-69
2022/10/18 12:54:29;;;;;;;14.70;2.95;;;;;;;;;;5019306;28;20127;-70
2022/10/18 12:56:55;;;;;;;18.48;3.40;;;;;;;;;;5018844;28;20049;-65
2022/10/18 12:59:25;;;;;;;17.60;2.95;;;;;;;;;;5018809;28;20042;-67
2022/10/18 13:01:54;;;;;;;19.60;3.40;;;;;;;;;;5019204;28;20061;-69
2022/10/18 13:04:32;;;;;;;15.85;3.75;;;;;;;;;;5018463;28;20057;-67
2022/10/18 13:06:58;;;;;;;18.42;3.35;;;;;;;;;;5019140;28;20095;-68
2022/10/18 13:09:29;;;;;;;18.17;3.40;;;;;;;;;;5019122;28;20080;-68
2022/10/18 13:12:00;;;;;;;16.92;3.47;;;;;;;;;;5019878;28;20429;-70
2022/10/18 13:14:38;;;;;;;19.05;3.58;;;;;;;;;;5018932;28;20053;-70
2022/10/18 13:17:18;;;;;;;24.73;4.25;;;;;;;;;;5020292;28;20054;-69
2022/10/18 13:19:53;;;;;;;17.88;3.22;;;;;;;;;;5001921;28;20142;-71
2022/10/18 13:22:28;;;;;;;19.70;4.13;;;;;;;;;;5019492;28;20450;-72
2022/10/18 13:25:03;;;;;;;24.55;4.15;;;;;;;;;;5020605;28;20072;-67
2022/10/18 13:27:38;;;;;;;23.70;3.75;;;;;;;;;;5019958;28;20100;-73
2022/10/18 13:30:22;;;;;;;18.13;3.60;;;;;;;;;;5019453;28;20045;-72
2022/10/18 13:33:05;;;;;;;17.02;3.03;;;;;;;;;;5020128;28;20046;-70
2022/10/18 13:35:45;;;;;;;22.15;3.40;;;;;;;;;;5015891;28;20085;-69
2022/10/18 13:38:27;;;;;;;19.45;3.33;;;;;;;;;;5030807;28;20133;-70
2022/10/18 13:41:04;;;;;;;22.25;3.80;;;;;;;;;;5015515;28;20045;-68
2022/10/18 13:43:49;;;;;;;15.63;3.47;;;;;;;;;;5015729;28;20176;-71
2022/10/18 13:46:15;;;;;;;18.48;3.28;;;;;;;;;;5015188;28;20115;-66
2022/10/18 13:48:54;;;;;;;14.40;3.33;;;;;;;;;;5015221;28;20048;-69
2022/10/18 13:51:32;;;;;;;18.88;3.75;;;;;;;;;;5015350;28;20128;-71
2022/10/18 13:54:13;;;;;;;13.55;3.33;;;;;;;;;;5015394;28;20108;-66
2022/10/18 13:56:39;;;;;;;23.05;4.53;;;;;;;;;;5014947;28;20104;-68
2022/10/18 13:59:14;;;;;;;16.65;3.88;;;;;;;;;;5019985;28;20108;-69
2022/10/18 14:01:48;;;;;;;15.20;3.53;;;;;;;;;;5021851;28;20045;-64
2022/10/18 14:04:26;;;;;;;18.05;3.70;;;;;;;;;;5015184;28;20077;-68
2022/10/18 14:06:57;;;;;;;15.93;3.00;;;;;;;;;;5016060;28;20076;-68
2022/10/18 14:09:25;;;;;;;17.45;3.58;;;;;;;;;;5015013;28;20084;-69
2022/10/18 14:11:51;;;;;;;17.35;3.35;;;;;;;;;;5015297;28;20046;-69
2022/10/18 14:14:17;;;;;;;17.85;3.58;;;;;;;;;;5030345;28;20054;-70
2022/10/18 14:16:49;;;;;;;16.85;3.10;;;;;;;;;;5014400;28;20498;-72
2022/10/18 14:19:24;;;;;;;17.35;3.10;;;;;;;;;;5014449;28;20593;-68
2022/10/18 14:21:53;;;;;;;17.65;3.70;;;;;;;;;;5014870;28;20053;-69
2022/10/18 14:24:22;;;;;;;19.50;3.25;;;;;;;;;;5030032;28;20145;-69
2022/10/18 14:26:48;;;;;;;20.17;3.45;;;;;;;;;;5014711;28;20046;-70
2022/10/18 14:29:19;;;;;;;16.60;3.25;;;;;;;;;;5014815;28;20386;-69
2022/10/18 14:32:00;;;;;;;18.40;3.35;;;;;;;;;;5014173;28;20475;-66
2022/10/18 14:34:26;;;;;;;14.25;3.22;;;;;;;;;;5014778;28;20041;-67